sensor_id;sensor_type;location;lat;lon;timestamp;P1;durP1;ratioP1;P2;durP2;ratioP2
57667;SDS011;43499;52.366;12.912;2023-06-22T00:00:51;0.20;;;0.20;;
57667;SDS011;43499;52.366;12.912;2023-06-22T00:01:52;0.30;;;0.30;;
57667;SDS011;43499;52.366;12.912;2023-06-22T00:02:53;0.30;;;0.30;;
57667;SDS011;43499;52.366;12.912;2023-06-22T00:03:54;0.20;;;0.20;;
57667;SDS011;43499;52.366;12.912;2023-06-22T00:04:56;0.20;;;0.20;;
57667;SDS011;43499;52.366;12.912;2023-06-22T00:05:57;0.30;;;0.30;;
57667;SDS011;43499;52.366;12.912;2023-06-22T00:06:58;0.28;;;0.28;;
57667;SDS011;43499;52.366;12.912;2023-06-22T00:08:02;0.30;;;0.30;;
57667;SDS011;43499;52.366;12.912;2023-06-22T00:09:05;0.20;;;0.20;;
57667;SDS011;43499;52.366;12.912;2023-06-22T00:10:07;0.28;;;0.28;;
57667;SDS011;43499;52.366;12.912;2023-06-22T00:11:08;0.30;;;0.30;;
57667;SDS011;43499;52.366;12.912;2023-06-22T00:12:09;0.20;;;0.20;;
57667;SDS011;43499;52.366;12.912;2023-06-22T00:13:10;0.28;;;0.28;;
57667;SDS011;43499;52.366;12.912;2023-06-22T00:14:13;0.30;;;0.30;;
57667;SDS011;43499;52.366;12.912;2023-06-22T00:15:14;0.20;;;0.20;;
57667;SDS011;43499;52.366;12.912;2023-06-22T00:16:15;0.30;;;0.30;;
57667;SDS011;43499;52.366;12.912;2023-06-22T00:17:16;0.30;;;0.30;;
57667;SDS011;43499;52.366;12.912;2023-06-22T00:18:17;0.30;;;0.30;;
57667;SDS011;43499;52.366;12.912;2023-06-22T00:19:18;0.20;;;0.20;;
57667;SDS011;43499;52.366;12.912;2023-06-22T00:20:20;0.25;;;0.25;;
57667;SDS011;43499;52.366;12.912;2023-06-22T00:21:21;0.20;;;0.20;;
57667;SDS011;43499;52.366;12.912;2023-06-22T00:22:23;0.28;;;0.28;;
57667;SDS011;43499;52.366;12.912;2023-06-22T00:23:29;0.30;;;0.30;;
57667;SDS011;43499;52.366;12.912;2023-06-22T00:24:34;0.30;;;0.30;;
57667;SDS011;43499;52.366;12.912;2023-06-22T00:25:36;0.30;;;0.30;;
57667;SDS011;43499;52.366;12.912;2023-06-22T00:26:38;0.30;;;0.30;;
57667;SDS011;43499;52.366;12.912;2023-06-22T00:27:42;0.25;;;0.25;;
57667;SDS011;43499;52.366;12.912;2023-06-22T00:28:43;0.25;;;0.25;;
57667;SDS011;43499;52.366;12.912;2023-06-22T00:29:45;0.30;;;0.30;;
57667;SDS011;43499;52.366;12.912;2023-06-22T00:30:46;0.22;;;0.22;;
57667;SDS011;43499;52.366;12.912;2023-06-22T00:31:47;0.20;;;0.20;;
57667;SDS011;43499;52.366;12.912;2023-06-22T00:32:49;0.30;;;0.30;;
57667;SDS011;43499;52.366;12.912;2023-06-22T00:33:50;0.20;;;0.20;;
57667;SDS011;43499;52.366;12.912;2023-06-22T00:34:51;0.30;;;0.30;;
57667;SDS011;43499;52.366;12.912;2023-06-22T00:35:52;0.30;;;0.30;;
57667;SDS011;43499;52.366;12.912;2023-06-22T00:36:54;0.30;;;0.30;;
57667;SDS011;43499;52.366;12.912;2023-06-22T00:37:59;0.30;;;0.30;;
57667;SDS011;43499;52.366;12.912;2023-06-22T00:39:05;0.30;;;0.30;;
57667;SDS011;43499;52.366;12.912;2023-06-22T00:40:08;0.30;;;0.30;;
57667;SDS011;43499;52.366;12.912;2023-06-22T00:41:12;0.30;;;0.30;;
57667;SDS011;43499;52.366;12.912;2023-06-22T00:42:13;0.30;;;0.30;;
57667;SDS011;43499;52.366;12.912;2023-06-22T00:43:15;0.20;;;0.20;;
57667;SDS011;43499;52.366;12.912;2023-06-22T00:44:16;0.30;;;0.30;;
57667;SDS011;43499;52.366;12.912;2023-06-22T00:45:17;0.30;;;0.30;;
57667;SDS011;43499;52.366;12.912;2023-06-22T00:46:18;0.30;;;0.30;;
57667;SDS011;43499;52.366;12.912;2023-06-22T00:47:19;0.30;;;0.30;;
57667;SDS011;43499;52.366;12.912;2023-06-22T00:48:20;0.20;;;0.20;;
57667;SDS011;43499;52.366;12.912;2023-06-22T00:49:22;0.30;;;0.30;;
57667;SDS011;43499;52.366;12.912;2023-06-22T00:50:25;0.30;;;0.30;;
57667;SDS011;43499;52.366;12.912;2023-06-22T00:51:27;0.20;;;0.20;;
57667;SDS011;43499;52.366;12.912;2023-06-22T00:52:28;0.20;;;0.20;;
57667;SDS011;43499;52.366;12.912;2023-06-22T00:53:31;0.20;;;0.20;;
57667;SDS011;43499;52.366;12.912;2023-06-22T00:54:36;0.30;;;0.30;;
57667;SDS011;43499;52.366;12.912;2023-06-22T00:55:38;0.30;;;0.30;;
57667;SDS011;43499;52.366;12.912;2023-06-22T00:56:46;0.30;;;0.30;;
57667;SDS011;43499;52.366;12.912;2023-06-22T00:57:47;0.30;;;0.30;;
57667;SDS011;43499;52.366;12.912;2023-06-22T00:58:49;0.30;;;0.30;;
57667;SDS011;43499;52.366;12.912;2023-06-22T00:59:53;0.20;;;0.20;;
57667;SDS011;43499;52.366;12.912;2023-06-22T01:00:55;0.30;;;0.30;;
57667;SDS011;43499;52.366;12.912;2023-06-22T01:01:56;0.20;;;0.20;;
57667;SDS011;43499;52.366;12.912;2023-06-22T01:02:57;0.30;;;0.30;;
57667;SDS011;43499;52.366;12.912;2023-06-22T01:03:59;0.20;;;0.20;;
57667;SDS011;43499;52.366;12.912;2023-06-22T01:05:00;0.25;;;0.25;;
57667;SDS011;43499;52.366;12.912;2023-06-22T01:06:06;0.30;;;0.30;;
57667;SDS011;43499;52.366;12.912;2023-06-22T01:07:20;0.30;;;0.30;;
57667;SDS011;43499;52.366;12.912;2023-06-22T01:08:44;0.30;;;0.30;;
57667;SDS011;43499;52.366;12.912;2023-06-22T01:10:07;0.20;;;0.20;;
57667;SDS011;43499;52.366;12.912;2023-06-22T01:11:20;0.30;;;0.30;;
57667;SDS011;43499;52.366;12.912;2023-06-22T01:12:25;0.30;;;0.30;;
57667;SDS011;43499;52.366;12.912;2023-06-22T01:13:40;0.30;;;0.30;;
57667;SDS011;43499;52.366;12.912;2023-06-22T01:14:58;0.20;;;0.20;;
57667;SDS011;43499;52.366;12.912;2023-06-22T01:16:25;0.30;;;0.30;;
57667;SDS011;43499;52.366;12.912;2023-06-22T01:17:29;0.20;;;0.20;;
57667;SDS011;43499;52.366;12.912;2023-06-22T01:18:31;0.30;;;0.30;;
57667;SDS011;43499;52.366;12.912;2023-06-22T01:19:49;0.28;;;0.28;;
57667;SDS011;43499;52.366;12.912;2023-06-22T01:20:56;0.30;;;0.30;;
57667;SDS011;43499;52.366;12.912;2023-06-22T01:21:58;0.20;;;0.20;;
57667;SDS011;43499;52.366;12.912;2023-06-22T01:24:33;0.25;;;0.25;;
57667;SDS011;43499;52.366;12.912;2023-06-22T01:27:12;0.20;;;0.20;;
57667;SDS011;43499;52.366;12.912;2023-06-22T01:29:31;0.25;;;0.25;;
57667;SDS011;43499;52.366;12.912;2023-06-22T01:30:34;0.30;;;0.30;;
57667;SDS011;43499;52.366;12.912;2023-06-22T01:31:37;0.20;;;0.20;;
57667;SDS011;43499;52.366;12.912;2023-06-22T01:32:40;0.30;;;0.30;;
57667;SDS011;43499;52.366;12.912;2023-06-22T01:33:42;0.30;;;0.30;;
57667;SDS011;43499;52.366;12.912;2023-06-22T01:34:47;0.30;;;0.30;;
57667;SDS011;43499;52.366;12.912;2023-06-22T01:35:49;0.30;;;0.30;;
57667;SDS011;43499;52.366;12.912;2023-06-22T01:36:51;0.20;;;0.20;;
57667;SDS011;43499;52.366;12.912;2023-06-22T01:37:53;0.30;;;0.30;;
57667;SDS011;43499;52.366;12.912;2023-06-22T01:38:55;0.30;;;0.30;;
57667;SDS011;43499;52.366;12.912;2023-06-22T01:39:58;0.30;;;0.30;;
57667;SDS011;43499;52.366;12.912;2023-06-22T01:41:00;0.30;;;0.30;;
57667;SDS011;43499;52.366;12.912;2023-06-22T01:42:03;0.20;;;0.20;;
57667;SDS011;43499;52.366;12.912;2023-06-22T01:43:05;0.30;;;0.30;;
57667;SDS011;43499;52.366;12.912;2023-06-22T01:44:10;0.28;;;0.28;;
57667;SDS011;43499;52.366;12.912;2023-06-22T01:45:11;0.30;;;0.30;;
57667;SDS011;43499;52.366;12.912;2023-06-22T01:46:13;0.25;;;0.25;;
57667;SDS011;43499;52.366;12.912;2023-06-22T01:47:15;0.30;;;0.30;;
57667;SDS011;43499;52.366;12.912;2023-06-22T01:48:18;0.20;;;0.20;;
57667;SDS011;43499;52.366;12.912;2023-06-22T01:49:20;0.30;;;0.30;;
57667;SDS011;43499;52.366;12.912;2023-06-22T01:50:21;0.20;;;0.20;;
57667;SDS011;43499;52.366;12.912;2023-06-22T01:51:23;0.30;;;0.30;;
57667;SDS011;43499;52.366;12.912;2023-06-22T01:52:25;0.30;;;0.30;;
57667;SDS011;43499;52.366;12.912;2023-06-22T01:53:26;0.25;;;0.25;;
57667;SDS011;43499;52.366;12.912;2023-06-22T01:54:27;0.30;;;0.30;;
57667;SDS011;43499;52.366;12.912;2023-06-22T01:55:28;0.20;;;0.20;;
57667;SDS011;43499;52.366;12.912;2023-06-22T01:56:29;0.30;;;0.30;;
57667;SDS011;43499;52.366;12.912;2023-06-22T01:57:30;0.20;;;0.20;;
57667;SDS011;43499;52.366;12.912;2023-06-22T01:58:32;0.30;;;0.30;;
57667;SDS011;43499;52.366;12.912;2023-06-22T01:59:35;0.20;;;0.20;;
57667;SDS011;43499;52.366;12.912;2023-06-22T02:00:43;0.25;;;0.25;;
57667;SDS011;43499;52.366;12.912;2023-06-22T02:01:58;0.20;;;0.20;;
57667;SDS011;43499;52.366;12.912;2023-06-22T02:03:08;0.30;;;0.30;;
57667;SDS011;43499;52.366;12.912;2023-06-22T02:04:16;0.30;;;0.30;;
57667;SDS011;43499;52.366;12.912;2023-06-22T02:05:22;0.30;;;0.30;;
57667;SDS011;43499;52.366;12.912;2023-06-22T02:06:30;0.30;;;0.30;;
57667;SDS011;43499;52.366;12.912;2023-06-22T02:07:41;0.30;;;0.30;;
57667;SDS011;43499;52.366;12.912;2023-06-22T02:08:51;0.20;;;0.20;;
57667;SDS011;43499;52.366;12.912;2023-06-22T02:09:56;0.22;;;0.22;;
57667;SDS011;43499;52.366;12.912;2023-06-22T02:10:59;0.30;;;0.30;;
57667;SDS011;43499;52.366;12.912;2023-06-22T02:12:21;0.30;;;0.30;;
57667;SDS011;43499;52.366;12.912;2023-06-22T02:13:28;0.30;;;0.30;;
57667;SDS011;43499;52.366;12.912;2023-06-22T02:14:37;0.30;;;0.30;;
57667;SDS011;43499;52.366;12.912;2023-06-22T02:15:43;0.20;;;0.20;;
57667;SDS011;43499;52.366;12.912;2023-06-22T02:16:50;0.30;;;0.30;;
57667;SDS011;43499;52.366;12.912;2023-06-22T02:17:52;0.20;;;0.20;;
57667;SDS011;43499;52.366;12.912;2023-06-22T02:19:03;0.30;;;0.30;;
57667;SDS011;43499;52.366;12.912;2023-06-22T02:20:11;0.30;;;0.30;;
57667;SDS011;43499;52.366;12.912;2023-06-22T02:21:20;0.30;;;0.30;;
57667;SDS011;43499;52.366;12.912;2023-06-22T02:22:27;0.20;;;0.20;;
57667;SDS011;43499;52.366;12.912;2023-06-22T02:23:29;0.30;;;0.30;;
57667;SDS011;43499;52.366;12.912;2023-06-22T02:24:36;0.28;;;0.28;;
57667;SDS011;43499;52.366;12.912;2023-06-22T02:25:37;0.28;;;0.28;;
57667;SDS011;43499;52.366;12.912;2023-06-22T02:26:42;0.30;;;0.30;;
57667;SDS011;43499;52.366;12.912;2023-06-22T02:27:46;0.20;;;0.20;;
57667;SDS011;43499;52.366;12.912;2023-06-22T02:28:48;0.20;;;0.20;;
57667;SDS011;43499;52.366;12.912;2023-06-22T02:29:57;0.20;;;0.20;;
57667;SDS011;43499;52.366;12.912;2023-06-22T02:31:03;0.20;;;0.20;;
57667;SDS011;43499;52.366;12.912;2023-06-22T02:32:13;0.30;;;0.30;;
57667;SDS011;43499;52.366;12.912;2023-06-22T02:34:01;0.30;;;0.30;;
57667;SDS011;43499;52.366;12.912;2023-06-22T02:55:21;0.30;;;0.30;;
57667;SDS011;43499;52.366;12.912;2023-06-22T02:57:42;0.20;;;0.20;;
57667;SDS011;43499;52.366;12.912;2023-06-22T03:25:24;0.20;;;0.20;;
57667;SDS011;43499;52.366;12.912;2023-06-22T03:29:27;0.20;;;0.20;;
57667;SDS011;43499;52.366;12.912;2023-06-22T03:46:27;0.20;;;0.20;;
57667;SDS011;43499;52.366;12.912;2023-06-22T03:54:18;0.30;;;0.30;;
57667;SDS011;43499;52.366;12.912;2023-06-22T03:56:14;0.30;;;0.30;;
57667;SDS011;43499;52.366;12.912;2023-06-22T04:04:55;0.30;;;0.30;;
57667;SDS011;43499;52.366;12.912;2023-06-22T04:16:03;0.30;;;0.30;;
57667;SDS011;43499;52.366;12.912;2023-06-22T04:57:34;0.30;;;0.30;;
57667;SDS011;43499;52.366;12.912;2023-06-22T05:02:29;0.30;;;0.30;;
57667;SDS011;43499;52.366;12.912;2023-06-22T05:08:00;0.30;;;0.30;;
57667;SDS011;43499;52.366;12.912;2023-06-22T05:13:04;0.30;;;0.30;;
57667;SDS011;43499;52.366;12.912;2023-06-22T05:14:18;0.30;;;0.30;;
57667;SDS011;43499;52.366;12.912;2023-06-22T05:15:45;0.30;;;0.30;;
57667;SDS011;43499;52.366;12.912;2023-06-22T05:17:29;0.30;;;0.30;;
57667;SDS011;43499;52.366;12.912;2023-06-22T05:23:30;0.30;;;0.30;;
57667;SDS011;43499;52.366;12.912;2023-06-22T05:24:45;0.30;;;0.30;;
57667;SDS011;43499;52.366;12.912;2023-06-22T05:26:59;0.30;;;0.30;;
57667;SDS011;43499;52.366;12.912;2023-06-22T05:30:19;0.20;;;0.20;;
57667;SDS011;43499;52.366;12.912;2023-06-22T05:31:33;0.40;;;0.40;;
57667;SDS011;43499;52.366;12.912;2023-06-22T05:32:41;0.20;;;0.20;;
57667;SDS011;43499;52.366;12.912;2023-06-22T05:33:55;0.22;;;0.22;;
57667;SDS011;43499;52.366;12.912;2023-06-22T05:35:50;0.30;;;0.30;;
57667;SDS011;43499;52.366;12.912;2023-06-22T05:37:55;0.30;;;0.30;;
57667;SDS011;43499;52.366;12.912;2023-06-22T05:39:59;0.30;;;0.30;;
57667;SDS011;43499;52.366;12.912;2023-06-22T05:41:12;0.30;;;0.30;;
57667;SDS011;43499;52.366;12.912;2023-06-22T05:42:59;0.30;;;0.30;;
57667;SDS011;43499;52.366;12.912;2023-06-22T05:45:00;0.30;;;0.30;;
57667;SDS011;43499;52.366;12.912;2023-06-22T05:50:50;0.30;;;0.30;;
57667;SDS011;43499;52.366;12.912;2023-06-22T05:52:22;0.30;;;0.30;;
57667;SDS011;43499;52.366;12.912;2023-06-22T05:55:16;0.30;;;0.30;;
57667;SDS011;43499;52.366;12.912;2023-06-22T06:06:15;0.30;;;0.30;;
57667;SDS011;43499;52.366;12.912;2023-06-22T06:11:49;0.30;;;0.30;;
57667;SDS011;43499;52.366;12.912;2023-06-22T06:19:15;0.30;;;0.30;;
57667;SDS011;43499;52.366;12.912;2023-06-22T06:20:36;0.30;;;0.30;;
57667;SDS011;43499;52.366;12.912;2023-06-22T06:21:45;0.30;;;0.30;;
57667;SDS011;43499;52.366;12.912;2023-06-22T06:23:22;0.30;;;0.30;;
57667;SDS011;43499;52.366;12.912;2023-06-22T06:27:19;0.30;;;0.30;;
57667;SDS011;43499;52.366;12.912;2023-06-22T06:29:15;0.25;;;0.25;;
57667;SDS011;43499;52.366;12.912;2023-06-22T06:30:21;0.30;;;0.30;;
57667;SDS011;43499;52.366;12.912;2023-06-22T06:31:46;0.30;;;0.30;;
57667;SDS011;43499;52.366;12.912;2023-06-22T06:32:56;0.30;;;0.30;;
57667;SDS011;43499;52.366;12.912;2023-06-22T06:36:03;0.30;;;0.30;;
57667;SDS011;43499;52.366;12.912;2023-06-22T06:37:58;0.30;;;0.30;;
57667;SDS011;43499;52.366;12.912;2023-06-22T06:39:25;0.40;;;0.40;;
57667;SDS011;43499;52.366;12.912;2023-06-22T06:40:27;0.30;;;0.30;;
57667;SDS011;43499;52.366;12.912;2023-06-22T06:43:16;0.30;;;0.30;;
57667;SDS011;43499;52.366;12.912;2023-06-22T06:44:27;0.30;;;0.30;;
57667;SDS011;43499;52.366;12.912;2023-06-22T06:47:48;0.30;;;0.30;;
57667;SDS011;43499;52.366;12.912;2023-06-22T06:49:09;0.30;;;0.30;;
57667;SDS011;43499;52.366;12.912;2023-06-22T06:52:45;0.30;;;0.30;;
57667;SDS011;43499;52.366;12.912;2023-06-22T06:54:06;0.40;;;0.40;;
57667;SDS011;43499;52.366;12.912;2023-06-22T06:56:06;0.30;;;0.30;;
57667;SDS011;43499;52.366;12.912;2023-06-22T07:01:08;0.30;;;0.30;;
57667;SDS011;43499;52.366;12.912;2023-06-22T07:02:35;0.30;;;0.30;;
57667;SDS011;43499;52.366;12.912;2023-06-22T07:04:13;0.30;;;0.30;;
57667;SDS011;43499;52.366;12.912;2023-06-22T07:05:38;0.30;;;0.30;;
57667;SDS011;43499;52.366;12.912;2023-06-22T07:07:08;0.30;;;0.30;;
57667;SDS011;43499;52.366;12.912;2023-06-22T07:08:35;0.30;;;0.30;;
57667;SDS011;43499;52.366;12.912;2023-06-22T07:13:07;0.30;;;0.30;;
57667;SDS011;43499;52.366;12.912;2023-06-22T07:16:55;0.20;;;0.20;;
57667;SDS011;43499;52.366;12.912;2023-06-22T07:18:20;0.30;;;0.30;;
57667;SDS011;43499;52.366;12.912;2023-06-22T07:23:41;0.20;;;0.20;;
57667;SDS011;43499;52.366;12.912;2023-06-22T07:26:58;0.30;;;0.30;;
57667;SDS011;43499;52.366;12.912;2023-06-22T07:28:09;0.30;;;0.30;;
57667;SDS011;43499;52.366;12.912;2023-06-22T07:29:16;0.30;;;0.30;;
57667;SDS011;43499;52.366;12.912;2023-06-22T07:34:08;0.30;;;0.30;;
57667;SDS011;43499;52.366;12.912;2023-06-22T07:35:42;0.35;;;0.35;;
57667;SDS011;43499;52.366;12.912;2023-06-22T07:36:57;0.30;;;0.30;;
57667;SDS011;43499;52.366;12.912;2023-06-22T07:38:28;0.30;;;0.30;;
57667;SDS011;43499;52.366;12.912;2023-06-22T07:39:55;0.30;;;0.30;;
57667;SDS011;43499;52.366;12.912;2023-06-22T07:41:46;0.30;;;0.30;;
57667;SDS011;43499;52.366;12.912;2023-06-22T07:43:17;0.30;;;0.30;;
57667;SDS011;43499;52.366;12.912;2023-06-22T07:46:48;0.30;;;0.30;;
57667;SDS011;43499;52.366;12.912;2023-06-22T07:48:06;0.30;;;0.30;;
57667;SDS011;43499;52.366;12.912;2023-06-22T07:49:08;0.30;;;0.30;;
57667;SDS011;43499;52.366;12.912;2023-06-22T07:50:48;0.30;;;0.30;;
57667;SDS011;43499;52.366;12.912;2023-06-22T07:52:51;0.30;;;0.30;;
57667;SDS011;43499;52.366;12.912;2023-06-22T07:54:22;0.30;;;0.30;;
57667;SDS011;43499;52.366;12.912;2023-06-22T07:57:59;0.30;;;0.30;;
57667;SDS011;43499;52.366;12.912;2023-06-22T07:59:56;0.30;;;0.30;;
57667;SDS011;43499;52.366;12.912;2023-06-22T08:02:47;0.30;;;0.30;;
57667;SDS011;43499;52.366;12.912;2023-06-22T08:08:00;0.28;;;0.28;;
57667;SDS011;43499;52.366;12.912;2023-06-22T08:10:00;0.30;;;0.30;;
57667;SDS011;43499;52.366;12.912;2023-06-22T08:26:01;0.30;;;0.30;;
57667;SDS011;43499;52.366;12.912;2023-06-22T08:53:58;0.30;;;0.30;;
57667;SDS011;43499;52.366;12.912;2023-06-22T08:59:07;0.30;;;0.30;;
57667;SDS011;43499;52.366;12.912;2023-06-22T09:04:24;0.30;;;0.30;;
57667;SDS011;43499;52.366;12.912;2023-06-22T09:06:46;0.30;;;0.30;;
57667;SDS011;43499;52.366;12.912;2023-06-22T09:15:56;0.35;;;0.35;;
57667;SDS011;43499;52.366;12.912;2023-06-22T09:36:42;0.40;;;0.40;;
57667;SDS011;43499;52.366;12.912;2023-06-22T10:04:18;0.60;;;0.60;;
57667;SDS011;43499;52.366;12.912;2023-06-22T10:11:10;0.50;;;0.50;;
57667;SDS011;43499;52.366;12.912;2023-06-22T10:36:45;0.50;;;0.50;;
57667;SDS011;43499;52.366;12.912;2023-06-22T10:58:21;0.60;;;0.60;;
57667;SDS011;43499;52.366;12.912;2023-06-22T11:03:25;0.70;;;0.70;;
57667;SDS011;43499;52.366;12.912;2023-06-22T11:18:17;0.50;;;0.50;;
57667;SDS011;43499;52.366;12.912;2023-06-22T11:19:18;0.60;;;0.60;;
57667;SDS011;43499;52.366;12.912;2023-06-22T11:20:19;0.60;;;0.60;;
57667;SDS011;43499;52.366;12.912;2023-06-22T11:21:20;0.50;;;0.50;;
57667;SDS011;43499;52.366;12.912;2023-06-22T11:22:21;0.57;;;0.57;;
57667;SDS011;43499;52.366;12.912;2023-06-22T11:23:22;0.60;;;0.60;;
57667;SDS011;43499;52.366;12.912;2023-06-22T11:24:23;0.50;;;0.50;;
57667;SDS011;43499;52.366;12.912;2023-06-22T11:25:25;0.50;;;0.50;;
57667;SDS011;43499;52.366;12.912;2023-06-22T11:26:26;0.50;;;0.50;;
57667;SDS011;43499;52.366;12.912;2023-06-22T11:27:30;0.60;;;0.60;;
57667;SDS011;43499;52.366;12.912;2023-06-22T11:28:31;0.55;;;0.55;;
57667;SDS011;43499;52.366;12.912;2023-06-22T11:29:32;0.50;;;0.50;;
57667;SDS011;43499;52.366;12.912;2023-06-22T11:30:33;0.50;;;0.50;;
57667;SDS011;43499;52.366;12.912;2023-06-22T11:31:35;0.55;;;0.55;;
57667;SDS011;43499;52.366;12.912;2023-06-22T11:32:36;0.50;;;0.50;;
57667;SDS011;43499;52.366;12.912;2023-06-22T11:33:37;0.60;;;0.60;;
57667;SDS011;43499;52.366;12.912;2023-06-22T11:34:38;0.60;;;0.60;;
57667;SDS011;43499;52.366;12.912;2023-06-22T11:35:39;0.60;;;0.60;;
57667;SDS011;43499;52.366;12.912;2023-06-22T11:36:40;0.60;;;0.60;;
57667;SDS011;43499;52.366;12.912;2023-06-22T11:37:41;0.60;;;0.60;;
57667;SDS011;43499;52.366;12.912;2023-06-22T11:38:43;0.55;;;0.55;;
57667;SDS011;43499;52.366;12.912;2023-06-22T11:39:44;0.60;;;0.60;;
57667;SDS011;43499;52.366;12.912;2023-06-22T11:40:45;0.60;;;0.60;;
57667;SDS011;43499;52.366;12.912;2023-06-22T11:41:46;0.60;;;0.60;;
57667;SDS011;43499;52.366;12.912;2023-06-22T11:42:47;0.60;;;0.60;;
57667;SDS011;43499;52.366;12.912;2023-06-22T11:43:48;0.60;;;0.60;;
57667;SDS011;43499;52.366;12.912;2023-06-22T11:44:49;0.60;;;0.60;;
57667;SDS011;43499;52.366;12.912;2023-06-22T11:45:50;0.70;;;0.70;;
57667;SDS011;43499;52.366;12.912;2023-06-22T11:46:52;0.60;;;0.60;;
57667;SDS011;43499;52.366;12.912;2023-06-22T11:47:53;0.70;;;0.70;;
57667;SDS011;43499;52.366;12.912;2023-06-22T11:48:54;0.70;;;0.70;;
57667;SDS011;43499;52.366;12.912;2023-06-22T11:49:55;0.60;;;0.60;;
57667;SDS011;43499;52.366;12.912;2023-06-22T11:50:56;0.60;;;0.60;;
57667;SDS011;43499;52.366;12.912;2023-06-22T11:51:57;0.70;;;0.70;;
57667;SDS011;43499;52.366;12.912;2023-06-22T11:52:58;0.70;;;0.70;;
57667;SDS011;43499;52.366;12.912;2023-06-22T11:54:00;0.68;;;0.68;;
57667;SDS011;43499;52.366;12.912;2023-06-22T11:55:01;0.70;;;0.70;;
57667;SDS011;43499;52.366;12.912;2023-06-22T11:56:04;0.63;;;0.63;;
57667;SDS011;43499;52.366;12.912;2023-06-22T11:57:05;0.57;;;0.57;;
57667;SDS011;43499;52.366;12.912;2023-06-22T11:58:06;0.60;;;0.60;;
57667;SDS011;43499;52.366;12.912;2023-06-22T11:59:08;0.50;;;0.50;;
57667;SDS011;43499;52.366;12.912;2023-06-22T12:00:10;0.40;;;0.40;;
57667;SDS011;43499;52.366;12.912;2023-06-22T12:01:18;0.50;;;0.50;;
57667;SDS011;43499;52.366;12.912;2023-06-22T12:02:19;0.50;;;0.50;;
57667;SDS011;43499;52.366;12.912;2023-06-22T12:03:20;0.40;;;0.40;;
57667;SDS011;43499;52.366;12.912;2023-06-22T12:04:22;0.50;;;0.50;;
57667;SDS011;43499;52.366;12.912;2023-06-22T12:05:23;0.60;;;0.60;;
57667;SDS011;43499;52.366;12.912;2023-06-22T12:06:25;0.70;;;0.70;;
57667;SDS011;43499;52.366;12.912;2023-06-22T12:07:26;0.70;;;0.70;;
57667;SDS011;43499;52.366;12.912;2023-06-22T12:08:27;0.70;;;0.70;;
57667;SDS011;43499;52.366;12.912;2023-06-22T12:09:28;0.70;;;0.70;;
57667;SDS011;43499;52.366;12.912;2023-06-22T12:10:29;0.57;;;0.57;;
57667;SDS011;43499;52.366;12.912;2023-06-22T12:11:30;0.60;;;0.60;;
57667;SDS011;43499;52.366;12.912;2023-06-22T12:12:31;0.70;;;0.70;;
57667;SDS011;43499;52.366;12.912;2023-06-22T12:13:32;0.70;;;0.70;;
57667;SDS011;43499;52.366;12.912;2023-06-22T12:14:33;0.60;;;0.60;;
57667;SDS011;43499;52.366;12.912;2023-06-22T12:15:35;0.63;;;0.63;;
57667;SDS011;43499;52.366;12.912;2023-06-22T12:16:36;0.70;;;0.70;;
57667;SDS011;43499;52.366;12.912;2023-06-22T12:17:37;0.60;;;0.60;;
57667;SDS011;43499;52.366;12.912;2023-06-22T12:18:38;0.70;;;0.70;;
57667;SDS011;43499;52.366;12.912;2023-06-22T12:19:39;0.68;;;0.68;;
57667;SDS011;43499;52.366;12.912;2023-06-22T12:20:40;0.50;;;0.50;;
57667;SDS011;43499;52.366;12.912;2023-06-22T12:21:41;0.70;;;0.70;;
57667;SDS011;43499;52.366;12.912;2023-06-22T12:22:46;0.70;;;0.70;;
57667;SDS011;43499;52.366;12.912;2023-06-22T12:23:48;0.70;;;0.70;;
57667;SDS011;43499;52.366;12.912;2023-06-22T12:24:49;0.70;;;0.70;;
57667;SDS011;43499;52.366;12.912;2023-06-22T12:25:50;0.70;;;0.70;;
57667;SDS011;43499;52.366;12.912;2023-06-22T12:26:51;0.70;;;0.70;;
57667;SDS011;43499;52.366;12.912;2023-06-22T12:27:53;0.60;;;0.60;;
57667;SDS011;43499;52.366;12.912;2023-06-22T12:28:54;0.60;;;0.60;;
57667;SDS011;43499;52.366;12.912;2023-06-22T12:29:55;0.60;;;0.60;;
57667;SDS011;43499;52.366;12.912;2023-06-22T12:30:57;0.60;;;0.60;;
57667;SDS011;43499;52.366;12.912;2023-06-22T12:31:58;0.50;;;0.50;;
57667;SDS011;43499;52.366;12.912;2023-06-22T12:32:59;0.50;;;0.50;;
57667;SDS011;43499;52.366;12.912;2023-06-22T12:34:00;0.47;;;0.47;;
57667;SDS011;43499;52.366;12.912;2023-06-22T12:35:01;0.50;;;0.50;;
57667;SDS011;43499;52.366;12.912;2023-06-22T12:36:02;0.50;;;0.50;;
57667;SDS011;43499;52.366;12.912;2023-06-22T12:37:05;0.50;;;0.50;;
57667;SDS011;43499;52.366;12.912;2023-06-22T12:38:06;0.50;;;0.50;;
57667;SDS011;43499;52.366;12.912;2023-06-22T12:39:09;0.40;;;0.40;;
57667;SDS011;43499;52.366;12.912;2023-06-22T12:40:10;0.30;;;0.30;;
57667;SDS011;43499;52.366;12.912;2023-06-22T12:41:11;0.40;;;0.40;;
57667;SDS011;43499;52.366;12.912;2023-06-22T12:42:12;0.40;;;0.40;;
57667;SDS011;43499;52.366;12.912;2023-06-22T12:43:13;0.40;;;0.40;;
57667;SDS011;43499;52.366;12.912;2023-06-22T12:44:14;0.40;;;0.40;;
57667;SDS011;43499;52.366;12.912;2023-06-22T12:45:16;0.40;;;0.40;;
57667;SDS011;43499;52.366;12.912;2023-06-22T12:46:17;0.40;;;0.40;;
57667;SDS011;43499;52.366;12.912;2023-06-22T12:47:18;0.40;;;0.40;;
57667;SDS011;43499;52.366;12.912;2023-06-22T12:48:21;0.40;;;0.40;;
57667;SDS011;43499;52.366;12.912;2023-06-22T12:49:23;0.40;;;0.40;;
57667;SDS011;43499;52.366;12.912;2023-06-22T12:50:24;0.40;;;0.40;;
57667;SDS011;43499;52.366;12.912;2023-06-22T12:51:25;0.40;;;0.40;;
57667;SDS011;43499;52.366;12.912;2023-06-22T12:52:26;0.40;;;0.40;;
57667;SDS011;43499;52.366;12.912;2023-06-22T12:53:27;0.40;;;0.40;;
57667;SDS011;43499;52.366;12.912;2023-06-22T12:54:28;0.40;;;0.40;;
57667;SDS011;43499;52.366;12.912;2023-06-22T12:55:30;0.40;;;0.40;;
57667;SDS011;43499;52.366;12.912;2023-06-22T12:56:31;0.40;;;0.40;;
57667;SDS011;43499;52.366;12.912;2023-06-22T12:57:32;0.40;;;0.40;;
57667;SDS011;43499;52.366;12.912;2023-06-22T12:58:33;0.40;;;0.40;;
57667;SDS011;43499;52.366;12.912;2023-06-22T12:59:34;0.40;;;0.40;;
57667;SDS011;43499;52.366;12.912;2023-06-22T13:00:35;0.40;;;0.40;;
57667;SDS011;43499;52.366;12.912;2023-06-22T13:01:36;0.40;;;0.40;;
57667;SDS011;43499;52.366;12.912;2023-06-22T13:02:37;0.40;;;0.40;;
57667;SDS011;43499;52.366;12.912;2023-06-22T13:03:39;0.30;;;0.30;;
57667;SDS011;43499;52.366;12.912;2023-06-22T13:04:40;0.30;;;0.30;;
57667;SDS011;43499;52.366;12.912;2023-06-22T13:05:41;0.30;;;0.30;;
57667;SDS011;43499;52.366;12.912;2023-06-22T13:06:43;0.30;;;0.30;;
57667;SDS011;43499;52.366;12.912;2023-06-22T13:07:48;0.40;;;0.40;;
57667;SDS011;43499;52.366;12.912;2023-06-22T13:08:49;0.30;;;0.30;;
57667;SDS011;43499;52.366;12.912;2023-06-22T13:09:50;0.40;;;0.40;;
57667;SDS011;43499;52.366;12.912;2023-06-22T13:10:52;0.30;;;0.30;;
57667;SDS011;43499;52.366;12.912;2023-06-22T13:11:53;0.30;;;0.30;;
57667;SDS011;43499;52.366;12.912;2023-06-22T13:12:54;0.40;;;0.40;;
57667;SDS011;43499;52.366;12.912;2023-06-22T13:14:01;0.40;;;0.40;;
57667;SDS011;43499;52.366;12.912;2023-06-22T13:15:02;0.40;;;0.40;;
57667;SDS011;43499;52.366;12.912;2023-06-22T13:16:05;0.38;;;0.38;;
57667;SDS011;43499;52.366;12.912;2023-06-22T13:17:06;0.30;;;0.30;;
57667;SDS011;43499;52.366;12.912;2023-06-22T13:18:07;0.40;;;0.40;;
57667;SDS011;43499;52.366;12.912;2023-06-22T13:19:08;0.40;;;0.40;;
57667;SDS011;43499;52.366;12.912;2023-06-22T13:20:09;0.40;;;0.40;;